Inicio METAR Ruta Wind Satelite

Informe Meteorológico

Fecha: 2020/11/30 14:34:45 Local
2020.11.30 19:34 UTC


Estado: VENCIDO
Operación:VFR
Cucuta / Camilo Daza, Colombia (SKCC) 07-56N 072-31W 317M
Nov 30, 2020 - 01:00 PM EST / 2020.11.30 1800 UTC
Wind: from the N (010 degrees) at 8 MPH (7 KT):0
Visibility: greater than 7 mile(s):0
Sky conditions: partly cloudy
Temperature: 89 F (32 C)
Dew Point: 69 F (21 C)
Relative Humidity: 52%
Pressure (altimeter): 29.86 in. Hg (1011 hPa)
ob: SKCC 301800Z 01007KT 9999 FEW023 SCT200 32/21 A2986
cycle: 18

SKCC 301700Z 12004KT 9999 FEW023 SCT200 32/21 A2990
SKCC 301500Z 04006KT 9999 FEW023 SCT200 30/22 A2995
SKCC 301400Z 02004KT 340V100 FEW023 SCT200 28/23 A2996
SKCC 301300Z 36004KT 9999 FEW023 26/22 A2996
SKCC 301200Z 05004KT 9999 SCT023 25/22 A2994

2020/11/30 18:42
TAF SKCC 301630Z 3018/0118 35008KT 9999 SCT023 BKN120 TX31/3018Z TN22/0110Z